Time;durP1;ratioP1;P1;durP2;ratioP2;P2;SDS_P1;SDS_P2;PMS_P1;PMS_P2;Temp;Humidity;BMP_temperature;BMP_pressure;BME280_temperature;BME280_humidity;BME280_pressure;Samples;Min_cycle;Max_cycle;Signal;HPM_P1;HPM_P2
2022/12/21 00:01:28;;;;;;;33.22;21.70;;;;;;;8.31;100.00;100882.97;5052593;28;20082;-71
2022/12/21 00:03:56;;;;;;;35.33;21.63;;;;;;;8.31;100.00;100878.47;5056377;28;20028;-71
2022/12/21 00:06:23;;;;;;;34.38;22.27;;;;;;;8.32;100.00;100876.66;5059741;28;20492;-70
2022/12/21 00:08:49;;;;;;;33.53;20.77;;;;;;;8.30;100.00;100881.22;5047050;28;20049;-70
2022/12/21 00:11:15;;;;;;;32.33;18.65;;;;;;;8.30;100.00;100881.22;5052175;28;20366;-70
2022/12/21 00:13:41;;;;;;;33.38;22.30;;;;;;;8.28;100.00;100878.66;5058465;28;20073;-70
2022/12/21 00:16:10;;;;;;;35.25;20.92;;;;;;;8.26;100.00;100877.91;5048221;28;20034;-71
2022/12/21 00:18:37;;;;;;;30.15;17.42;;;;;;;8.26;100.00;100877.03;5040323;28;20033;-71
2022/12/21 00:21:11;;;;;;;30.77;19.50;;;;;;;8.21;100.00;100883.56;5040560;28;20389;-70
2022/12/21 00:23:37;;;;;;;31.13;17.10;;;;;;;8.19;100.00;100873.88;5060255;28;20030;-70
2022/12/21 00:26:05;;;;;;;33.90;20.15;;;;;;;8.19;100.00;100884.59;5039293;28;20063;-71
2022/12/21 00:28:31;;;;;;;32.33;19.92;;;;;;;8.19;100.00;100884.59;5040027;28;20033;-70
2022/12/21 00:31:08;;;;;;;34.33;21.67;;;;;;;8.18;100.00;100882.88;5046613;28;20025;-70
2022/12/21 00:33:35;;;;;;;31.73;19.73;;;;;;;8.17;100.00;100881.13;5060385;28;20036;-70
2022/12/21 00:36:00;;;;;;;30.55;18.63;;;;;;;8.15;100.00;100877.72;5043376;28;20051;-70
2022/12/21 00:38:26;;;;;;;36.25;22.15;;;;;;;8.15;100.00;100880.38;5040978;28;20083;-71
2022/12/21 00:40:59;;;;;;;34.45;21.70;;;;;;;8.15;100.00;100870.53;5053595;28;20029;-70
2022/12/21 00:43:25;;;;;;;34.05;22.10;;;;;;;8.16;100.00;100876.75;5058518;28;20114;-70
2022/12/21 00:45:51;;;;;;;38.33;23.15;;;;;;;8.15;100.00;100885.75;5055009;28;20488;-70
2022/12/21 00:48:16;;;;;;;37.80;22.00;;;;;;;8.17;100.00;100879.34;5046401;28;20025;-72
2022/12/21 00:50:42;;;;;;;37.38;23.05;;;;;;;8.19;100.00;100884.59;5059317;28;20651;-70
2022/12/21 00:53:08;;;;;;;35.75;23.45;;;;;;;8.19;100.00;100879.25;5058925;28;20472;-70
2022/12/21 00:55:34;;;;;;;36.97;23.48;;;;;;;8.20;100.00;100887.19;5054943;28;20025;-70
2022/12/21 00:57:59;;;;;;;40.50;26.25;;;;;;;8.20;100.00;100889.00;5051602;28;20032;-71
2022/12/21 01:00:25;;;;;;;41.05;25.13;;;;;;;8.19;100.00;100893.47;5049552;28;20036;-70
2022/12/21 01:02:50;;;;;;;39.88;25.13;;;;;;;8.19;100.00;100888.13;5057633;28;20067;-71
2022/12/21 01:05:16;;;;;;;37.72;24.48;;;;;;;8.18;100.00;100893.56;5042166;28;20514;-71
2022/12/21 01:07:41;;;;;;;39.20;25.13;;;;;;;8.18;100.00;100901.63;5050388;28;20064;-70
2022/12/21 01:10:07;;;;;;;39.47;25.95;;;;;;;8.19;100.00;100900.66;5048085;28;20025;-70
2022/12/21 01:12:32;;;;;;;37.75;24.20;;;;;;;8.15;100.00;100901.81;5041715;28;20028;-71
2022/12/21 01:14:57;;;;;;;36.85;22.20;;;;;;;8.14;100.00;100903.63;5038871;28;20036;-70
2022/12/21 01:17:23;;;;;;;36.70;23.50;;;;;;;8.12;100.00;100907.34;5039893;28;20546;-70
2022/12/21 01:19:49;;;;;;;79.47;27.05;;;;;;;8.10;100.00;100911.97;5052458;28;20037;-71
2022/12/21 01:22:15;;;;;;;34.28;22.33;;;;;;;8.11;100.00;100908.31;5044985;28;20036;-70
2022/12/21 01:24:40;;;;;;;37.70;23.95;;;;;;;8.11;100.00;100908.31;5044839;28;20435;-70
2022/12/21 01:27:05;;;;;;;37.25;23.25;;;;;;;8.11;100.00;100905.63;5051082;28;20112;-69
2022/12/21 01:29:31;;;;;;;35.38;22.10;;;;;;;8.09;100.00;100899.50;5044904;28;20021;-70
2022/12/21 01:31:56;;;;;;;38.55;22.52;;;;;;;8.10;100.00;100907.44;5043403;28;20381;-70
2022/12/21 01:34:21;;;;;;;38.50;22.38;;;;;;;8.06;100.00;100911.28;5048383;28;20029;-70
2022/12/21 01:36:47;;;;;;;34.63;20.85;;;;;;;8.07;100.00;100926.38;5058304;28;20379;-70
2022/12/21 01:39:13;;;;;;;37.33;24.30;;;;;;;8.07;100.00;100926.38;5039242;28;20025;-70
2022/12/21 01:41:38;;;;;;;39.22;23.75;;;;;;;8.07;100.00;100930.84;5041291;28;20105;-71
2022/12/21 01:44:24;;;;;;;37.50;23.38;;;;;;;8.05;100.00;100931.84;5040059;28;20133;-70
2022/12/21 01:46:49;;;;;;;41.70;25.75;;;;;;;8.10;100.00;100939.56;5041641;28;20029;-70
2022/12/21 01:49:19;;;;;;;39.83;23.70;;;;;;;8.09;100.00;100931.63;5039324;28;20036;-70
2022/12/21 01:51:53;;;;;;;147.30;33.72;;;;;;;8.05;100.00;100931.84;5053826;28;20025;-70
2022/12/21 01:54:25;;;;;;;37.75;22.67;;;;;;;8.03;100.00;100920.34;5041590;28;20078;-70
2022/12/21 01:56:55;;;;;;;39.15;23.17;;;;;;;8.02;100.00;100915.97;5040264;28;20126;-70
2022/12/21 01:59:26;;;;;;;39.03;26.35;;;;;;;8.03;100.00;100917.66;5055742;28;20029;-70
2022/12/21 02:01:51;;;;;;;38.72;23.65;;;;;;;8.00;100.00;100907.16;5037656;28;20427;-72
2022/12/21 02:04:17;;;;;;;40.30;25.67;;;;;;;8.02;100.00;100907.94;5032892;28;20041;-72
2022/12/21 02:06:56;;;;;;;38.95;23.95;;;;;;;8.02;100.00;100918.63;5040274;28;20064;-72
2022/12/21 02:09:24;;;;;;;38.70;22.95;;;;;;;7.98;100.00;100913.53;5031819;28;20041;-72
2022/12/21 02:11:51;;;;;;;37.47;23.75;;;;;;;7.95;100.00;100914.63;5034343;28;20068;-72
2022/12/21 02:14:17;;;;;;;37.53;24.35;;;;;;;7.97;100.00;100909.16;5031803;28;20518;-72
2022/12/21 02:17:16;;;;;;;33.53;22.02;;;;;;;7.96;100.00;100910.97;5039126;28;20033;-72
2022/12/21 02:20:19;;;;;;;34.83;21.73;;;;;;;7.98;100.00;100917.09;5046832;28;20061;-72
2022/12/21 02:23:12;;;;;;;36.55;22.27;;;;;;;7.97;100.00;100909.16;5039966;28;20016;-72
2022/12/21 02:25:59;;;;;;;37.72;22.98;;;;;;;7.95;100.00;100913.72;5033725;28;20039;-72
2022/12/21 02:28:37;;;;;;;39.17;24.25;;;;;;;7.96;100.00;100912.78;5034041;28;20431;-72
2022/12/21 02:31:02;;;;;;;39.72;22.85;;;;;;;7.93;100.00;100908.47;5038239;28;20032;-72
2022/12/21 02:33:49;;;;;;;40.45;24.98;;;;;;;7.93;100.00;100905.81;5042298;28;20033;-72
2022/12/21 02:36:36;;;;;;;39.75;26.40;;;;;;;7.91;100.00;100899.69;5043786;28;20041;-72
2022/12/21 02:39:18;;;;;;;40.30;26.52;;;;;;;7.92;100.00;100906.78;5034687;28;20065;-72
2022/12/21 02:41:58;;;;;;;43.33;26.92;;;;;;;7.94;100.00;100912.03;5043440;28;20053;-72
2022/12/21 02:44:38;;;;;;;42.72;27.25;;;;;;;7.91;100.00;100905.03;5043229;28;20059;-72
2022/12/21 02:47:17;;;;;;;43.15;27.63;;;;;;;7.93;100.00;100904.94;5047962;28;20024;-72
2022/12/21 02:50:08;;;;;;;42.53;27.58;;;;;;;7.93;100.00;100900.44;5053334;28;20032;-72
2022/12/21 02:52:46;;;;;;;42.10;27.20;;;;;;;7.93;100.00;100899.59;5047081;28;20028;-73
2022/12/21 02:55:12;;;;;;;43.45;29.42;;;;;;;7.93;100.00;100892.41;5042678;28;20438;-72
2022/12/21 02:57:41;;;;;;;40.88;27.50;;;;;;;7.93;100.00;100892.41;5047043;28;20025;-72
2022/12/21 03:00:09;;;;;;;40.75;26.50;;;;;;;7.93;100.00;100900.44;5050091;28;20534;-72
2022/12/21 03:06:21;;;;;;;40.80;27.02;;;;;;;7.96;100.00;100902.94;5042606;28;20052;-72
2022/12/21 03:09:05;;;;;;;47.03;29.30;;;;;;;7.95;100.00;100903.91;5050525;28;20025;-72
2022/12/21 03:11:40;;;;;;;46.15;29.13;;;;;;;7.96;100.00;100894.06;5053262;28;20021;-72
2022/12/21 03:14:18;;;;;;;48.25;29.90;;;;;;;7.95;100.00;100893.22;5041220;28;20370;-72
2022/12/21 03:16:51;;;;;;;47.38;30.85;;;;;;;7.95;100.00;100887.84;5037737;28;20103;-72
2022/12/21 03:19:33;;;;;;;43.53;29.63;;;;;;;7.94;100.00;100886.13;5034243;28;20030;-72
2022/12/21 03:22:10;;;;;;;46.80;29.83;;;;;;;7.96;100.00;100889.56;5038989;28;20032;-72
2022/12/21 03:24:53;;;;;;;45.75;29.70;;;;;;;7.96;100.00;100891.38;5040023;28;20025;-72
2022/12/21 03:27:26;;;;;;;43.70;28.77;;;;;;;7.92;100.00;100888.03;5046347;28;20032;-72
2022/12/21 03:30:09;;;;;;;41.95;27.65;;;;;;;7.93;100.00;100876.38;5054282;28;20603;-72
2022/12/21 03:32:44;;;;;;;40.80;27.10;;;;;;;7.92;100.00;100873.78;5039458;28;20047;-72
2022/12/21 03:35:21;;;;;;;42.75;28.08;;;;;;;7.92;100.00;100881.81;5034836;28;20018;-72
2022/12/21 03:37:49;;;;;;;46.85;30.38;;;;;;;7.92;100.00;100889.84;5050950;28;20024;-72
2022/12/21 03:40:21;;;;;;;42.75;27.60;;;;;;;7.93;100.00;100894.25;5041752;28;20032;-72
2022/12/21 03:42:59;;;;;;;42.13;28.55;;;;;;;7.93;100.00;100891.56;5048792;28;20568;-72
2022/12/21 03:45:32;;;;;;;44.85;30.90;;;;;;;7.92;100.00;100887.16;5047786;28;20422;-72
2022/12/21 03:48:05;;;;;;;44.42;28.27;;;;;;;7.94;100.00;100886.13;5043203;28;20032;-72
2022/12/21 03:50:35;;;;;;;41.88;28.67;;;;;;;7.93;100.00;100887.06;5053460;28;20028;-72
2022/12/21 03:53:16;;;;;;;46.42;29.52;;;;;;;7.95;100.00;100884.28;5032952;28;20033;-72
2022/12/21 03:55:46;;;;;;;44.35;30.45;;;;;;;7.94;100.00;100880.78;5035050;28;20029;-72
2022/12/21 03:58:12;;;;;;;42.30;28.75;;;;;;;7.94;100.00;100891.47;5044081;28;20029;-72
2022/12/21 04:00:44;;;;;;;39.25;26.50;;;;;;;7.95;100.00;100890.53;5047183;28;20021;-72
2022/12/21 04:03:32;;;;;;;42.35;28.05;;;;;;;7.94;100.00;100879.91;5039359;28;20484;-72
2022/12/21 04:06:03;;;;;;;41.78;25.83;;;;;;;7.90;100.00;100879.22;5048157;28;20037;-72
2022/12/21 04:08:30;;;;;;;42.17;25.10;;;;;;;7.89;100.00;100872.16;5042380;28;20044;-72
2022/12/21 04:10:55;;;;;;;43.38;23.20;;;;;;;7.88;100.00;100873.97;5033422;28;20033;-72
2022/12/21 04:13:20;;;;;;;36.28;23.67;;;;;;;7.86;100.00;100872.34;5041451;28;20021;-72
2022/12/21 04:16:04;;;;;;;38.33;23.25;;;;;;;7.85;100.00;100866.16;5047219;28;20171;-72
2022/12/21 04:21:13;;;;;;;33.13;20.63;;;;;;;7.82;100.00;100871.69;5039515;28;20035;-72
2022/12/21 04:29:06;;;;;;;37.00;22.08;;;;;;;7.78;100.00;100880.84;5048723;28;20132;-72
2022/12/21 04:31:32;;;;;;;33.08;19.23;;;;;;;7.77;100.00;100873.75;5037057;28;20148;-72
2022/12/21 04:33:57;;;;;;;32.88;19.27;;;;;;;7.76;100.00;100884.56;5048833;28;20025;-72
2022/12/21 04:39:06;;;;;;;33.28;21.05;;;;;;;7.74;100.00;100867.75;5035047;28;20040;-72
2022/12/21 04:41:32;;;;;;;32.38;18.58;;;;;;;7.73;100.00;100866.03;5037668;28;20048;-72
2022/12/21 04:43:57;;;;;;;34.55;19.83;;;;;;;7.70;100.00;100851.91;5036356;28;20029;-72
2022/12/21 04:46:22;;;;;;;30.10;18.23;;;;;;;7.70;100.00;100859.94;5032317;28;20033;-72
2022/12/21 04:48:48;;;;;;;32.10;17.98;;;;;;;7.68;100.00;100864.50;5049922;28;20025;-72
2022/12/21 04:51:17;;;;;;;31.42;18.70;;;;;;;7.67;100.00;100868.16;5045920;28;20067;-72
2022/12/21 04:53:43;;;;;;;30.38;17.40;;;;;;;7.67;100.00;100864.59;5034847;28;20080;-72
2022/12/21 04:56:09;;;;;;;31.40;18.38;;;;;;;7.65;100.00;100862.00;5047243;28;20033;-72
2022/12/21 04:58:34;;;;;;;35.20;18.55;;;;;;;7.65;100.00;100866.50;5032501;28;20029;-72
2022/12/21 05:01:03;;;;;;;30.23;17.08;;;;;;;7.64;100.00;100865.66;5035069;28;20028;-72
2022/12/21 05:03:28;;;;;;;30.20;17.02;;;;;;;7.62;100.00;100854.16;5035780;28;20101;-72
2022/12/21 05:05:54;;;;;;;31.20;17.20;;;;;;;7.61;100.00;100855.13;5041249;28;20116;-72
2022/12/21 05:08:19;;;;;;;29.60;16.75;;;;;;;7.63;100.00;100863.94;5042984;28;20127;-72
2022/12/21 05:10:44;;;;;;;28.73;16.35;;;;;;;7.62;100.00;100870.22;5035129;28;20432;-72
2022/12/21 05:13:10;;;;;;;32.40;16.13;;;;;;;7.61;100.00;100864.97;5038233;28;20017;-72
2022/12/21 05:15:37;;;;;;;30.98;16.67;;;;;;;7.59;100.00;100865.06;5034281;28;20025;-72
2022/12/21 05:18:02;;;;;;;31.42;16.50;;;;;;;7.58;100.00;100865.16;5033836;28;20017;-72
2022/12/21 05:20:28;;;;;;;31.48;16.27;;;;;;;7.57;100.00;100863.41;5038715;28;20063;-72
2022/12/21 05:22:53;;;;;;;30.30;16.13;;;;;;;7.56;100.00;100862.56;5038027;28;20518;-72
2022/12/21 05:25:18;;;;;;;31.88;15.35;;;;;;;7.56;100.00;100859.06;5036384;28;20074;-72
2022/12/21 05:27:43;;;;;;;30.52;16.27;;;;;;;7.55;100.00;100850.16;5033936;28;20480;-72
2022/12/21 05:30:09;;;;;;;28.20;15.15;;;;;;;7.55;100.00;100851.97;5041939;28;20036;-72
2022/12/21 05:32:34;;;;;;;31.67;14.45;;;;;;;7.53;100.00;100854.75;5046101;28;20529;-72
2022/12/21 05:35:00;;;;;;;30.38;15.27;;;;;;;7.54;100.00;100856.47;5045845;28;20381;-72
2022/12/21 05:37:27;;;;;;;32.97;16.27;;;;;;;7.55;100.00;100857.31;5040895;28;20104;-72
2022/12/21 05:39:53;;;;;;;27.38;14.40;;;;;;;7.54;100.00;100859.16;5047259;28;20032;-72
2022/12/21 05:42:18;;;;;;;26.55;14.40;;;;;;;7.53;100.00;100850.25;5035294;28;20050;-72
2022/12/21 05:44:43;;;;;;;29.90;15.68;;;;;;;7.52;100.00;100851.19;5032876;28;20120;-72
2022/12/21 05:47:08;;;;;;;27.17;14.57;;;;;;;7.50;100.00;100854.94;5033683;28;20107;-72
2022/12/21 05:49:34;;;;;;;29.50;14.35;;;;;;;7.48;100.00;100859.50;5032731;28;20030;-72
2022/12/21 05:51:59;;;;;;;28.00;15.10;;;;;;;7.46;100.00;100853.38;5033165;28;20431;-72
2022/12/21 05:54:25;;;;;;;27.70;14.35;;;;;;;7.43;100.00;100848.22;5042045;28;20021;-72
2022/12/21 05:56:50;;;;;;;28.35;13.75;;;;;;;7.39;100.00;100842.19;5051851;28;20145;-72
2022/12/21 05:59:15;;;;;;;26.30;13.90;;;;;;;7.40;100.00;100848.41;5047613;28;20051;-72
2022/12/21 06:01:41;;;;;;;27.00;12.85;;;;;;;7.38;100.00;100851.19;5046079;28;20435;-72
2022/12/21 06:04:06;;;;;;;30.52;13.23;;;;;;;7.38;100.00;100844.94;5046925;28;20161;-72
2022/12/21 06:06:31;;;;;;;25.80;12.00;;;;;;;7.34;100.00;100845.13;5046747;28;20033;-72
2022/12/21 06:08:56;;;;;;;25.27;12.55;;;;;;;7.33;100.00;100840.75;5037916;28;20397;-72
2022/12/21 06:11:23;;;;;;;26.52;11.88;;;;;;;7.32;100.00;100839.03;5035180;28;20029;-72
2022/12/21 06:13:50;;;;;;;24.83;11.63;;;;;;;7.30;100.00;100832.06;5044313;28;20112;-72
2022/12/21 06:16:18;;;;;;;28.73;12.38;;;;;;;7.28;100.00;100834.81;5043511;28;20796;-72
2022/12/21 06:18:44;;;;;;;24.77;12.27;;;;;;;7.29;100.00;100841.00;5044254;28;20029;-72
2022/12/21 06:21:11;;;;;;;27.75;12.10;;;;;;;7.28;100.00;100833.97;5043181;28;20091;-72
2022/12/21 06:23:37;;;;;;;23.90;10.43;;;;;;;7.29;100.00;100847.25;5044802;28;20021;-72
2022/12/21 06:26:04;;;;;;;28.13;11.50;;;;;;;7.27;100.00;100850.94;5041992;28;20033;-72
2022/12/21 06:28:31;;;;;;;23.65;10.18;;;;;;;7.24;100.00;100838.63;5041418;28;20032;-72
2022/12/21 06:31:05;;;;;;;24.95;10.20;;;;;;;7.22;100.00;100843.22;5047216;28;20449;-72
2022/12/21 06:33:30;;;;;;;26.10;9.90;;;;;;;7.20;100.00;100847.78;5039526;28;20074;-72
2022/12/21 06:35:56;;;;;;;24.58;8.60;;;;;;;7.16;100.00;100841.75;5036706;28;20548;-72
2022/12/21 06:38:23;;;;;;;24.08;9.18;;;;;;;7.14;100.00;100838.28;5043104;28;20025;-72
2022/12/21 06:40:56;;;;;;;20.80;8.73;;;;;;;7.15;100.00;100839.19;5037443;28;20033;-72
2022/12/21 06:43:22;;;;;;;24.17;9.57;;;;;;;7.13;100.00;100841.06;5042564;28;20021;-72
2022/12/21 06:45:55;;;;;;;25.00;8.43;;;;;;;7.11;100.00;100841.16;5046950;28;20553;-72
2022/12/21 06:48:21;;;;;;;27.15;8.93;;;;;;;7.12;100.00;100847.38;5039282;28;20067;-72
2022/12/21 06:50:51;;;;;;;24.35;8.45;;;;;;;7.11;100.00;100846.50;5044014;28;20555;-72
2022/12/21 06:53:16;;;;;;;25.48;8.77;;;;;;;7.09;100.00;100848.41;5036822;28;20107;-73
2022/12/21 06:55:42;;;;;;;20.75;7.38;;;;;;;7.08;100.00;100857.38;5038316;28;20029;-73
2022/12/21 06:58:07;;;;;;;21.15;8.02;;;;;;;7.09;100.00;100858.25;5035888;28;20040;-72
2022/12/21 07:00:32;;;;;;;21.33;7.63;;;;;;;7.08;100.00;100867.22;5047624;28;20139;-73
2022/12/21 07:02:58;;;;;;;20.00;7.40;;;;;;;7.10;100.00;100867.97;5041216;28;20029;-73
2022/12/21 07:05:23;;;;;;;23.42;7.40;;;;;;;7.06;100.00;100864.63;5035206;28;20051;-73
2022/12/21 07:07:48;;;;;;;16.38;6.63;;;;;;;7.07;100.00;100869.03;5035012;28;20037;-73
2022/12/21 07:10:13;;;;;;;24.55;7.97;;;;;;;7.05;100.00;100862.06;5040817;28;20078;-72
2022/12/21 07:12:39;;;;;;;22.05;7.50;;;;;;;7.03;100.00;100853.25;5050881;28;20017;-72
2022/12/21 07:15:04;;;;;;;20.48;6.57;;;;;;;7.02;100.00;100859.56;5044318;28;20032;-72
2022/12/21 07:17:30;;;;;;;24.05;6.25;;;;;;;7.01;100.00;100864.03;5049393;28;20033;-74
2022/12/21 07:19:55;;;;;;;20.00;6.18;;;;;;;6.99;100.00;100868.59;5033625;28;20472;-73
2022/12/21 07:22:20;;;;;;;16.45;6.03;;;;;;;6.96;100.00;100872.31;5050570;28;20028;-74
2022/12/21 07:24:45;;;;;;;19.70;6.38;;;;;;;6.95;100.00;100877.75;5046414;28;20108;-72
2022/12/21 07:27:11;;;;;;;19.50;6.43;;;;;;;6.94;100.00;100873.34;5044524;28;20499;-74
2022/12/21 07:29:36;;;;;;;23.10;7.43;;;;;;;6.93;100.00;100875.16;5033818;28;20025;-74
2022/12/21 07:32:01;;;;;;;19.63;6.28;;;;;;;6.92;100.00;100878.78;5041636;28;20040;-73
2022/12/21 07:34:27;;;;;;;21.52;6.45;;;;;;;6.92;100.00;100885.94;5041385;28;20028;-74
2022/12/21 07:36:52;;;;;;;21.02;6.75;;;;;;;6.91;100.00;100887.75;5036905;28;20040;-74
2022/12/21 07:39:17;;;;;;;18.58;6.35;;;;;;;6.89;100.00;100892.31;5043641;28;20025;-76
2022/12/21 07:41:43;;;;;;;18.75;6.22;;;;;;;6.90;100.00;100902.06;5045536;28;20057;-71
2022/12/21 07:44:08;;;;;;;19.27;7.07;;;;;;;6.91;100.00;100901.13;5039119;28;20056;-73
2022/12/21 07:46:33;;;;;;;22.25;6.28;;;;;;;6.90;100.00;100918.09;5047427;28;20056;-73
2022/12/21 07:48:59;;;;;;;22.08;6.68;;;;;;;6.88;100.00;100917.34;5042934;28;20488;-71
2022/12/21 07:51:24;;;;;;;20.85;7.20;;;;;;;6.90;100.00;100925.25;5053109;28;20049;-73
2022/12/21 07:53:50;;;;;;;20.50;7.07;;;;;;;6.92;100.00;100923.34;5039092;28;20033;-72
2022/12/21 07:56:17;;;;;;;23.80;6.47;;;;;;;6.90;100.00;100931.44;5037835;28;20033;-72
2022/12/21 07:58:42;;;;;;;22.48;7.45;;;;;;;6.90;100.00;100920.75;5037653;28;20029;-72
2022/12/21 08:01:13;;;;;;;25.77;7.93;;;;;;;6.91;100.00;100930.50;5040767;28;20059;-72
2022/12/21 08:03:41;;;;;;;20.02;7.45;;;;;;;6.90;100.00;100925.25;5037418;28;20037;-72
2022/12/21 08:06:07;;;;;;;22.40;7.72;;;;;;;6.91;100.00;100933.19;5054544;28;20084;-72
2022/12/21 08:08:33;;;;;;;23.23;8.15;;;;;;;6.92;100.00;100928.69;5047499;28;20463;-72
2022/12/21 08:10:58;;;;;;;21.45;7.60;;;;;;;6.90;100.00;100907.41;5050927;28;20054;-72
2022/12/21 08:13:24;;;;;;;22.90;7.47;;;;;;;6.92;100.00;100908.16;5051238;28;20078;-73
2022/12/21 08:15:58;;;;;;;22.90;8.30;;;;;;;6.89;100.00;100913.69;5047365;28;20029;-71
2022/12/21 08:18:23;;;;;;;20.27;7.65;;;;;;;6.90;100.00;100915.41;5046979;28;20029;-71
2022/12/21 08:20:48;;;;;;;22.88;7.90;;;;;;;6.91;100.00;100919.81;5049552;28;20028;-71
2022/12/21 08:23:14;;;;;;;23.70;8.98;;;;;;;6.93;100.00;100925.09;5049570;28;20032;-71
2022/12/21 08:25:39;;;;;;;22.98;8.73;;;;;;;6.94;100.00;100929.44;5050797;28;20430;-73
2022/12/21 08:28:04;;;;;;;24.83;9.05;;;;;;;6.97;100.00;100930.16;5051227;28;20519;-73
2022/12/21 08:30:30;;;;;;;25.50;9.45;;;;;;;6.98;100.00;100917.66;5051247;28;20029;-73
2022/12/21 08:32:55;;;;;;;23.90;9.50;;;;;;;7.00;100.00;100919.28;5049725;28;20061;-73
2022/12/21 08:35:20;;;;;;;27.10;9.73;;;;;;;7.04;100.00;100921.78;5049926;28;20044;-73
2022/12/21 08:37:46;;;;;;;26.88;10.18;;;;;;;7.06;100.00;100914.53;5047638;28;20111;-73
2022/12/21 08:40:11;;;;;;;25.63;10.70;;;;;;;7.06;100.00;100915.41;5047269;28;20385;-73
2022/12/21 08:42:36;;;;;;;26.25;10.30;;;;;;;7.07;100.00;100918.94;5047774;28;20041;-73
2022/12/21 08:45:02;;;;;;;27.75;11.00;;;;;;;7.09;100.00;100919.72;5049288;28;20029;-73
2022/12/21 08:47:27;;;;;;;28.27;11.43;;;;;;;7.08;100.00;100923.34;5048385;28;20497;-73
2022/12/21 08:49:52;;;;;;;27.55;11.90;;;;;;;7.11;100.00;100924.00;5048599;28;21410;-73
2022/12/21 08:52:18;;;;;;;26.83;11.35;;;;;;;7.13;100.00;100931.94;5047114;28;20159;-73
2022/12/21 08:54:43;;;;;;;26.48;11.38;;;;;;;7.13;100.00;100923.91;5048933;28;20029;-74
2022/12/21 08:57:08;;;;;;;25.35;11.77;;;;;;;7.14;100.00;100926.50;5048829;28;20676;-73
2022/12/21 08:59:34;;;;;;;27.80;11.88;;;;;;;7.15;100.00;100930.06;5051090;28;20028;-73
2022/12/21 09:01:59;;;;;;;32.03;14.65;;;;;;;7.17;100.00;100931.69;5051619;28;20036;-73
2022/12/21 09:04:24;;;;;;;28.38;13.63;;;;;;;7.18;100.00;100940.56;5069804;28;20056;-73
2022/12/21 09:06:50;;;;;;;29.52;13.88;;;;;;;7.19;100.00;100928.94;5057371;28;20025;-73
2022/12/21 09:09:15;;;;;;;33.72;13.23;;;;;;;7.23;100.00;100922.44;5051305;28;20028;-73
2022/12/21 09:11:40;;;;;;;33.60;15.63;;;;;;;7.25;100.00;100919.69;5051529;28;20392;-73
2022/12/21 09:14:06;;;;;;;34.97;15.02;;;;;;;7.25;100.00;100915.19;5049470;28;20024;-73
2022/12/21 09:16:31;;;;;;;30.60;15.63;;;;;;;7.28;100.00;100911.50;5051385;28;20036;-73
2022/12/21 09:18:56;;;;;;;33.65;14.30;;;;;;;7.31;100.00;100909.50;5051329;28;20071;-73
2022/12/21 09:21:23;;;;;;;31.20;15.15;;;;;;;7.32;100.00;100910.34;5051310;28;20456;-73
2022/12/21 09:23:48;;;;;;;31.60;15.52;;;;;;;7.33;100.00;100910.25;5049497;28;20033;-73
2022/12/21 09:26:15;;;;;;;29.58;14.13;;;;;;;7.33;100.00;100910.25;5051353;28;20021;-73
2022/12/21 09:28:40;;;;;;;29.67;14.40;;;;;;;7.35;100.00;100915.53;5050583;28;20028;-73
2022/12/21 09:31:15;;;;;;;30.65;14.77;;;;;;;7.37;100.00;100910.94;5048775;28;20036;-73
2022/12/21 09:33:40;;;;;;;31.48;16.17;;;;;;;7.40;100.00;100925.97;5050989;28;20020;-73
2022/12/21 09:36:07;;;;;;;31.63;15.30;;;;;;;7.42;100.00;100926.72;5051279;28;20024;-73
2022/12/21 09:38:33;;;;;;;31.85;14.05;;;;;;;7.45;100.00;100929.19;5051459;28;20025;-73
2022/12/21 09:41:19;;;;;;;28.00;13.10;;;;;;;7.50;100.00;100932.47;5046819;28;20045;-73
2022/12/21 09:43:58;;;;;;;32.15;15.05;;;;;;;7.53;100.00;100935.81;5050330;28;20492;-73
2022/12/21 09:46:25;;;;;;;34.45;14.77;;;;;;;7.55;100.00;100942.91;5049062;28;20068;-73
2022/12/21 09:48:53;;;;;;;37.80;15.35;;;;;;;7.59;100.00;100945.31;5047981;28;20495;-74
2022/12/21 09:51:22;;;;;;;26.08;12.90;;;;;;;7.60;100.00;100936.34;5059086;28;20029;-73
2022/12/21 09:53:52;;;;;;;26.60;13.15;;;;;;;7.62;100.00;100952.28;5060302;28;20032;-71
2022/12/21 09:56:21;;;;;;;26.90;13.90;;;;;;;7.63;100.00;100940.66;5055692;28;20102;-73
2022/12/21 09:58:49;;;;;;;30.75;14.40;;;;;;;7.64;100.00;100945.03;5052476;28;20028;-74
2022/12/21 10:01:26;;;;;;;28.60;14.90;;;;;;;7.66;100.00;100949.34;5053713;28;20036;-71
2022/12/21 10:04:10;;;;;;;26.17;12.82;;;;;;;7.68;100.00;100950.09;5052157;28;20033;-72
2022/12/21 10:06:57;;;;;;;29.55;13.82;;;;;;;7.70;100.00;100948.22;5051159;28;20032;-72
2022/12/21 10:09:34;;;;;;;30.88;13.90;;;;;;;7.72;100.00;100944.56;5045772;28;20056;-72
2022/12/21 10:12:26;;;;;;;28.55;12.98;;;;;;;7.74;100.00;100942.66;5052886;28;20075;-72
2022/12/21 10:15:19;;;;;;;26.63;13.32;;;;;;;7.77;100.00;100940.66;5050489;28;20439;-72
2022/12/21 10:18:17;;;;;;;27.55;12.30;;;;;;;7.80;100.00;100947.66;5052428;28;20081;-73
2022/12/21 10:20:52;;;;;;;26.45;11.32;;;;;;;7.79;100.00;100951.25;5049487;28;20052;-73
2022/12/21 10:23:24;;;;;;;25.55;12.05;;;;;;;7.78;100.00;100952.25;5047641;28;20025;-74
2022/12/21 10:25:56;;;;;;;26.10;11.93;;;;;;;7.79;100.00;100952.16;5047752;28;20628;-74
2022/12/21 10:28:48;;;;;;;28.45;11.88;;;;;;;7.83;100.00;100950.13;5044681;28;20021;-73
2022/12/21 10:31:44;;;;;;;31.73;12.88;;;;;;;7.83;100.00;100937.63;5050090;28;20028;-72
2022/12/21 10:34:18;;;;;;;26.95;11.88;;;;;;;7.85;100.00;100950.91;5047163;28;20391;-75
2022/12/21 10:36:46;;;;;;;27.85;11.30;;;;;;;7.83;100.00;100937.63;5044685;28;20025;-73
2022/12/21 10:39:15;;;;;;;29.15;11.90;;;;;;;7.84;100.00;100941.16;5049394;28;20087;-75
2022/12/21 10:41:47;;;;;;;28.50;11.73;;;;;;;7.84;100.00;100933.13;5045982;28;20048;-72
2022/12/21 10:44:13;;;;;;;23.35;10.90;;;;;;;7.82;100.00;100929.69;5049817;28;20291;-73
2022/12/21 10:46:38;;;;;;;25.63;11.27;;;;;;;7.81;100.00;100923.47;5045418;28;20064;-73
2022/12/21 10:49:21;;;;;;;26.73;12.65;;;;;;;7.82;100.00;100913.66;5047786;28;20595;-73
2022/12/21 10:51:46;;;;;;;25.17;12.32;;;;;;;7.81;100.00;100906.56;5073817;28;20035;-73
2022/12/21 10:54:11;;;;;;;28.75;13.15;;;;;;;7.82;100.00;100916.31;5058334;28;20036;-73
2022/12/21 10:56:44;;;;;;;31.08;13.55;;;;;;;7.82;100.00;100908.28;5045472;28;20036;-73
2022/12/21 10:59:20;;;;;;;29.45;12.95;;;;;;;7.83;100.00;100910.00;5047550;28;20040;-73
2022/12/21 11:01:45;;;;;;;29.23;12.88;;;;;;;7.82;100.00;100914.50;5049586;28;20025;-73
2022/12/21 11:04:31;;;;;;;26.70;13.27;;;;;;;7.83;100.00;100900.16;5051642;28;20032;-73
2022/12/21 11:07:01;;;;;;;25.88;12.35;;;;;;;7.82;100.00;100902.94;5051713;28;20061;-73
2022/12/21 11:09:29;;;;;;;;;;;;;;;7.87;100.00;100896.34;5052104;28;20492;-73
2022/12/21 11:11:54;;;;;;;28.70;12.70;;;;;;;7.83;100.00;100901.97;5053428;28;19959;-73
2022/12/21 11:14:20;;;;;;;32.80;13.85;;;;;;;7.83;100.00;100901.97;5051039;28;20025;-73
2022/12/21 11:16:46;;;;;;;30.45;13.23;;;;;;;7.82;100.00;100897.59;5053109;28;20024;-73
2022/12/21 11:19:14;;;;;;;33.53;13.05;;;;;;;7.83;100.00;100901.97;5053245;28;20032;-73
2022/12/21 11:21:49;;;;;;;25.85;13.20;;;;;;;7.82;100.00;100898.44;5052952;28;20493;-72
2022/12/21 11:24:17;;;;;;;35.00;13.55;;;;;;;7.83;100.00;100899.28;5053389;28;20060;-73
2022/12/21 11:26:45;;;;;;;27.58;12.63;;;;;;;7.83;100.00;100899.28;5052900;28;20511;-73
2022/12/21 11:29:20;;;;;;;28.50;13.73;;;;;;;7.84;100.00;100895.69;5051905;28;20027;-73
2022/12/21 11:31:46;;;;;;;30.02;12.75;;;;;;;7.84;100.00;100901.03;5048875;28;20075;-73
2022/12/21 11:34:26;;;;;;;27.80;12.45;;;;;;;7.90;100.00;100907.81;5051781;28;20098;-73
2022/12/21 11:36:57;;;;;;;28.40;12.52;;;;;;;7.90;100.00;100911.34;5053368;28;20469;-73